sensor_id;sensor_type;location;lat;lon;timestamp;pressure;altitude;pressure_sealevel;temperature;humidity
8253;BME280;61313;48.396;10.008;2024-02-23T00:01:52;94237.03;;;9.44;68.61
8253;BME280;61313;48.396;10.008;2024-02-23T00:04:17;94268.47;;;9.44;68.39
8253;BME280;61313;48.396;10.008;2024-02-23T00:06:46;94272.53;;;9.48;68.10
8253;BME280;61313;48.396;10.008;2024-02-23T00:09:11;94264.41;;;9.40;67.89
8253;BME280;61313;48.396;10.008;2024-02-23T00:11:40;94281.38;;;9.35;67.89
8253;BME280;61313;48.396;10.008;2024-02-23T00:14:09;94287.41;;;9.24;68.84
8253;BME280;61313;48.396;10.008;2024-02-23T00:16:39;94268.88;;;9.27;69.21
8253;BME280;61313;48.396;10.008;2024-02-23T00:19:05;94279.00;;;9.07;69.62
8253;BME280;61313;48.396;10.008;2024-02-23T00:21:30;94286.63;;;9.10;69.46
8253;BME280;61313;48.396;10.008;2024-02-23T00:23:55;94292.75;;;8.98;70.36
8253;BME280;61313;48.396;10.008;2024-02-23T00:26:21;94299.41;;;9.02;69.67
8253;BME280;61313;48.396;10.008;2024-02-23T00:28:46;94304.44;;;9.05;68.44
8253;BME280;61313;48.396;10.008;2024-02-23T00:31:12;94280.16;;;9.03;68.30
8253;BME280;61313;48.396;10.008;2024-02-23T00:33:37;94290.22;;;8.97;68.13
8253;BME280;61313;48.396;10.008;2024-02-23T00:36:03;94277.00;;;9.11;67.96
8253;BME280;61313;48.396;10.008;2024-02-23T00:38:28;94291.59;;;8.89;67.89
8253;BME280;61313;48.396;10.008;2024-02-23T00:40:55;94302.16;;;9.01;68.15
8253;BME280;61313;48.396;10.008;2024-02-23T00:43:20;94295.50;;;8.84;67.87
8253;BME280;61313;48.396;10.008;2024-02-23T00:45:46;94304.78;;;8.88;68.77
8253;BME280;61313;48.396;10.008;2024-02-23T00:48:11;94318.31;;;8.82;69.15
8253;BME280;61313;48.396;10.008;2024-02-23T00:50:38;94331.72;;;8.64;69.38
8253;BME280;61313;48.396;10.008;2024-02-23T00:53:03;94348.13;;;8.66;69.88
8253;BME280;61313;48.396;10.008;2024-02-23T00:55:29;94353.47;;;8.78;71.16
8253;BME280;61313;48.396;10.008;2024-02-23T00:57:54;94362.88;;;8.55;70.76
8253;BME280;61313;48.396;10.008;2024-02-23T01:00:19;94382.03;;;8.42;68.89
8253;BME280;61313;48.396;10.008;2024-02-23T01:02:45;94382.00;;;8.30;69.15
8253;BME280;61313;48.396;10.008;2024-02-23T01:05:10;94393.31;;;8.43;67.29
8253;BME280;61313;48.396;10.008;2024-02-23T01:07:36;94397.84;;;8.26;67.27
8253;BME280;61313;48.396;10.008;2024-02-23T01:10:01;94404.66;;;8.16;67.22
8253;BME280;61313;48.396;10.008;2024-02-23T01:12:27;94397.72;;;8.02;66.45
8253;BME280;61313;48.396;10.008;2024-02-23T01:14:53;94404.44;;;7.79;65.87
8253;BME280;61313;48.396;10.008;2024-02-23T01:17:18;94414.22;;;7.63;66.55
8253;BME280;61313;48.396;10.008;2024-02-23T01:19:44;94415.16;;;7.62;67.35
8253;BME280;61313;48.396;10.008;2024-02-23T01:22:10;94413.38;;;7.62;65.98
8253;BME280;61313;48.396;10.008;2024-02-23T01:24:35;94417.75;;;7.62;66.26
8253;BME280;61313;48.396;10.008;2024-02-23T01:27:01;94426.72;;;7.58;67.14
8253;BME280;61313;48.396;10.008;2024-02-23T01:29:26;94412.53;;;7.62;66.43
8253;BME280;61313;48.396;10.008;2024-02-23T01:31:52;94414.25;;;7.49;66.58
8253;BME280;61313;48.396;10.008;2024-02-23T01:34:22;94409.47;;;7.55;66.47
8253;BME280;61313;48.396;10.008;2024-02-23T01:36:47;94406.06;;;7.40;66.60
8253;BME280;61313;48.396;10.008;2024-02-23T01:39:13;94402.63;;;7.40;66.37
8253;BME280;61313;48.396;10.008;2024-02-23T01:41:39;94410.22;;;7.30;66.47
8253;BME280;61313;48.396;10.008;2024-02-23T01:44:04;94406.44;;;7.34;65.94
8253;BME280;61313;48.396;10.008;2024-02-23T01:46:30;94411.66;;;7.34;66.69
8253;BME280;61313;48.396;10.008;2024-02-23T01:48:56;94421.94;;;7.37;65.89
8253;BME280;61313;48.396;10.008;2024-02-23T01:51:22;94415.78;;;7.38;65.98
8253;BME280;61313;48.396;10.008;2024-02-23T01:53:47;94415.56;;;7.41;64.81
8253;BME280;61313;48.396;10.008;2024-02-23T01:56:14;94431.50;;;7.37;66.28
8253;BME280;61313;48.396;10.008;2024-02-23T01:58:43;94435.69;;;7.54;65.39
8253;BME280;61313;48.396;10.008;2024-02-23T02:01:08;94432.16;;;7.40;65.90
8253;BME280;61313;48.396;10.008;2024-02-23T02:03:34;94431.78;;;7.47;65.73
8253;BME280;61313;48.396;10.008;2024-02-23T02:06:00;94429.72;;;7.52;65.18
8253;BME280;61313;48.396;10.008;2024-02-23T02:08:26;94440.66;;;7.44;65.77
8253;BME280;61313;48.396;10.008;2024-02-23T02:10:51;94439.91;;;7.42;65.41
8253;BME280;61313;48.396;10.008;2024-02-23T02:13:17;94427.91;;;7.39;65.46
8253;BME280;61313;48.396;10.008;2024-02-23T02:15:42;94421.66;;;7.42;65.37
8253;BME280;61313;48.396;10.008;2024-02-23T02:18:09;94434.25;;;7.35;64.46
8253;BME280;61313;48.396;10.008;2024-02-23T02:20:35;94438.75;;;7.46;64.30
8253;BME280;61313;48.396;10.008;2024-02-23T02:23:01;94434.78;;;7.40;65.33
8253;BME280;61313;48.396;10.008;2024-02-23T02:25:27;94423.34;;;7.56;64.84
8253;BME280;61313;48.396;10.008;2024-02-23T02:27:52;94424.34;;;7.40;64.63
8253;BME280;61313;48.396;10.008;2024-02-23T02:30:17;94423.75;;;7.50;64.72
8253;BME280;61313;48.396;10.008;2024-02-23T02:32:43;94421.31;;;7.61;64.43
8253;BME280;61313;48.396;10.008;2024-02-23T02:35:10;94416.19;;;7.59;63.80
8253;BME280;61313;48.396;10.008;2024-02-23T02:37:37;94439.59;;;7.61;64.67
8253;BME280;61313;48.396;10.008;2024-02-23T02:40:02;94441.56;;;7.43;65.18
8253;BME280;61313;48.396;10.008;2024-02-23T02:42:28;94443.56;;;7.39;65.20
8253;BME280;61313;48.396;10.008;2024-02-23T02:44:54;94446.34;;;7.36;65.29
8253;BME280;61313;48.396;10.008;2024-02-23T02:47:19;94428.19;;;7.35;65.74
8253;BME280;61313;48.396;10.008;2024-02-23T02:49:45;94434.59;;;7.29;65.30
8253;BME280;61313;48.396;10.008;2024-02-23T02:52:10;94433.13;;;7.39;64.72
8253;BME280;61313;48.396;10.008;2024-02-23T02:54:36;94426.78;;;7.29;65.86
8253;BME280;61313;48.396;10.008;2024-02-23T02:57:01;94430.69;;;7.36;64.81
8253;BME280;61313;48.396;10.008;2024-02-23T02:59:26;94421.94;;;7.37;65.76
8253;BME280;61313;48.396;10.008;2024-02-23T03:01:52;94420.00;;;7.27;66.07
8253;BME280;61313;48.396;10.008;2024-02-23T03:04:17;94412.78;;;7.45;65.50
8253;BME280;61313;48.396;10.008;2024-02-23T03:06:42;94414.41;;;7.33;65.50
8253;BME280;61313;48.396;10.008;2024-02-23T03:09:08;94417.47;;;7.39;65.26
8253;BME280;61313;48.396;10.008;2024-02-23T03:11:33;94411.63;;;7.21;66.09
8253;BME280;61313;48.396;10.008;2024-02-23T03:13:59;94413.16;;;7.38;65.71
8253;BME280;61313;48.396;10.008;2024-02-23T03:16:24;94416.88;;;7.34;65.78
8253;BME280;61313;48.396;10.008;2024-02-23T03:18:52;94426.78;;;7.29;66.84
8253;BME280;61313;48.396;10.008;2024-02-23T03:21:19;94415.03;;;7.36;66.58
8253;BME280;61313;48.396;10.008;2024-02-23T03:23:44;94411.91;;;7.17;66.97
8253;BME280;61313;48.396;10.008;2024-02-23T03:26:10;94414.78;;;7.12;67.37
8253;BME280;61313;48.396;10.008;2024-02-23T03:28:35;94404.09;;;7.03;67.78
8253;BME280;61313;48.396;10.008;2024-02-23T03:31:01;94397.09;;;7.03;67.63
8253;BME280;61313;48.396;10.008;2024-02-23T03:33:26;94408.56;;;7.00;68.15
8253;BME280;61313;48.396;10.008;2024-02-23T03:35:52;94414.44;;;7.04;68.33
8253;BME280;61313;48.396;10.008;2024-02-23T03:38:17;94416.47;;;7.13;67.95
8253;BME280;61313;48.396;10.008;2024-02-23T03:40:43;94412.47;;;7.08;68.51
8253;BME280;61313;48.396;10.008;2024-02-23T03:43:08;94415.34;;;7.17;68.24
8253;BME280;61313;48.396;10.008;2024-02-23T03:45:33;94424.75;;;7.20;68.53
8253;BME280;61313;48.396;10.008;2024-02-23T03:48:00;94422.88;;;7.22;67.92
8253;BME280;61313;48.396;10.008;2024-02-23T03:50:25;94424.41;;;7.12;68.56
8253;BME280;61313;48.396;10.008;2024-02-23T03:52:51;94421.69;;;7.13;68.27
8253;BME280;61313;48.396;10.008;2024-02-23T03:55:16;94416.38;;;7.15;68.18
8253;BME280;61313;48.396;10.008;2024-02-23T03:57:41;94412.84;;;7.16;67.87
8253;BME280;61313;48.396;10.008;2024-02-23T04:00:07;94404.66;;;7.08;68.31
8253;BME280;61313;48.396;10.008;2024-02-23T04:02:34;94410.25;;;7.16;67.26
8253;BME280;61313;48.396;10.008;2024-02-23T04:04:59;94427.34;;;7.20;68.06
8253;BME280;61313;48.396;10.008;2024-02-23T04:07:24;94423.25;;;7.30;66.99
8253;BME280;61313;48.396;10.008;2024-02-23T04:09:50;94427.56;;;7.17;67.46
8253;BME280;61313;48.396;10.008;2024-02-23T04:12:21;94428.75;;;7.26;66.80
8253;BME280;61313;48.396;10.008;2024-02-23T04:14:47;94431.66;;;7.21;67.10
8253;BME280;61313;48.396;10.008;2024-02-23T04:17:12;94433.41;;;7.06;67.12
8253;BME280;61313;48.396;10.008;2024-02-23T04:19:38;94439.03;;;7.00;68.34
8253;BME280;61313;48.396;10.008;2024-02-23T04:22:05;94442.19;;;7.05;68.37
8253;BME280;61313;48.396;10.008;2024-02-23T04:24:33;94442.47;;;6.86;68.71
8253;BME280;61313;48.396;10.008;2024-02-23T04:26:59;94439.88;;;7.00;68.44
8253;BME280;61313;48.396;10.008;2024-02-23T04:29:24;94447.88;;;6.83;68.78
8253;BME280;61313;48.396;10.008;2024-02-23T04:31:50;94448.81;;;6.96;68.66
8253;BME280;61313;48.396;10.008;2024-02-23T04:34:15;94437.25;;;7.00;68.70
8253;BME280;61313;48.396;10.008;2024-02-23T04:36:44;94430.94;;;7.05;67.76
8253;BME280;61313;48.396;10.008;2024-02-23T04:39:09;94443.03;;;7.06;68.34
8253;BME280;61313;48.396;10.008;2024-02-23T04:41:34;94437.72;;;7.07;67.83
8253;BME280;61313;48.396;10.008;2024-02-23T04:44:00;94437.81;;;7.06;67.80
8253;BME280;61313;48.396;10.008;2024-02-23T04:46:26;94426.88;;;7.13;68.09
8253;BME280;61313;48.396;10.008;2024-02-23T04:48:52;94428.38;;;7.17;68.56
8253;BME280;61313;48.396;10.008;2024-02-23T04:51:17;94429.97;;;7.20;68.25
8253;BME280;61313;48.396;10.008;2024-02-23T04:53:43;94438.34;;;7.11;67.76
8253;BME280;61313;48.396;10.008;2024-02-23T04:56:09;94428.59;;;7.00;68.88
8253;BME280;61313;48.396;10.008;2024-02-23T04:58:34;94421.38;;;7.18;67.95
8253;BME280;61313;48.396;10.008;2024-02-23T05:01:00;94420.38;;;7.20;68.27
8253;BME280;61313;48.396;10.008;2024-02-23T05:03:25;94428.50;;;6.73;69.60
8253;BME280;61313;48.396;10.008;2024-02-23T05:05:51;94423.66;;;6.95;70.18
8253;BME280;61313;48.396;10.008;2024-02-23T05:08:21;94437.63;;;7.09;68.92
8253;BME280;61313;48.396;10.008;2024-02-23T05:10:49;94436.41;;;7.14;68.97
8253;BME280;61313;48.396;10.008;2024-02-23T05:13:15;94444.78;;;7.19;68.51
8253;BME280;61313;48.396;10.008;2024-02-23T05:15:40;94455.97;;;7.07;68.83
8253;BME280;61313;48.396;10.008;2024-02-23T05:18:06;94454.59;;;7.02;69.56
8253;BME280;61313;48.396;10.008;2024-02-23T05:20:31;94452.06;;;7.14;69.16
8253;BME280;61313;48.396;10.008;2024-02-23T05:22:57;94444.88;;;7.18;69.14
8253;BME280;61313;48.396;10.008;2024-02-23T05:25:22;94422.63;;;7.12;69.17
8253;BME280;61313;48.396;10.008;2024-02-23T05:27:47;94431.28;;;6.98;70.06
8253;BME280;61313;48.396;10.008;2024-02-23T05:30:13;94428.41;;;7.03;70.39
8253;BME280;61313;48.396;10.008;2024-02-23T05:32:38;94438.06;;;7.15;70.10
8253;BME280;61313;48.396;10.008;2024-02-23T05:35:04;94443.69;;;7.09;69.50
8253;BME280;61313;48.396;10.008;2024-02-23T05:37:30;94456.25;;;7.17;69.63
8253;BME280;61313;48.396;10.008;2024-02-23T05:39:55;94453.84;;;7.14;69.27
8253;BME280;61313;48.396;10.008;2024-02-23T05:42:21;94469.28;;;7.17;68.91
8253;BME280;61313;48.396;10.008;2024-02-23T05:44:46;94483.38;;;7.14;69.16
8253;BME280;61313;48.396;10.008;2024-02-23T05:47:13;94491.94;;;7.02;68.97
8253;BME280;61313;48.396;10.008;2024-02-23T05:49:39;94484.94;;;7.03;68.86
8253;BME280;61313;48.396;10.008;2024-02-23T05:52:05;94481.88;;;6.96;69.38
8253;BME280;61313;48.396;10.008;2024-02-23T05:54:30;94476.94;;;7.06;69.18
8253;BME280;61313;48.396;10.008;2024-02-23T05:56:55;94470.97;;;7.04;69.69
8253;BME280;61313;48.396;10.008;2024-02-23T05:59:21;94462.78;;;7.10;69.21
8253;BME280;61313;48.396;10.008;2024-02-23T06:01:46;94467.97;;;7.24;69.11
8253;BME280;61313;48.396;10.008;2024-02-23T06:04:12;94482.53;;;7.14;68.58
8253;BME280;61313;48.396;10.008;2024-02-23T06:06:41;94478.78;;;7.18;68.47
8253;BME280;61313;48.396;10.008;2024-02-23T06:09:06;94483.72;;;7.08;68.92
8253;BME280;61313;48.396;10.008;2024-02-23T06:11:32;94485.50;;;7.22;67.92
8253;BME280;61313;48.396;10.008;2024-02-23T06:13:57;94480.75;;;7.14;68.98
8253;BME280;61313;48.396;10.008;2024-02-23T06:16:22;94490.06;;;7.18;68.79
8253;BME280;61313;48.396;10.008;2024-02-23T06:18:48;94493.88;;;7.27;68.97
8253;BME280;61313;48.396;10.008;2024-02-23T06:21:17;94492.13;;;7.28;67.44
8253;BME280;61313;48.396;10.008;2024-02-23T06:23:43;94497.78;;;7.20;66.87
8253;BME280;61313;48.396;10.008;2024-02-23T06:26:09;94498.53;;;7.08;68.28
8253;BME280;61313;48.396;10.008;2024-02-23T06:28:35;94485.69;;;7.05;68.42
8253;BME280;61313;48.396;10.008;2024-02-23T06:31:03;94488.09;;;6.93;68.47
8253;BME280;61313;48.396;10.008;2024-02-23T06:33:30;94486.59;;;7.04;68.49
8253;BME280;61313;48.396;10.008;2024-02-23T06:35:55;94480.84;;;6.84;68.88
8253;BME280;61313;48.396;10.008;2024-02-23T06:38:21;94481.00;;;6.67;69.65
8253;BME280;61313;48.396;10.008;2024-02-23T06:40:46;94487.88;;;6.68;69.52
8253;BME280;61313;48.396;10.008;2024-02-23T06:43:12;94484.09;;;6.73;69.84
8253;BME280;61313;48.396;10.008;2024-02-23T06:45:38;94486.88;;;6.70;69.74
8253;BME280;61313;48.396;10.008;2024-02-23T06:48:03;94484.19;;;6.86;69.33
8253;BME280;61313;48.396;10.008;2024-02-23T06:50:29;94482.59;;;6.84;69.11
8253;BME280;61313;48.396;10.008;2024-02-23T06:52:54;94494.06;;;6.95;67.75
8253;BME280;61313;48.396;10.008;2024-02-23T06:55:20;94483.63;;;6.95;67.91
8253;BME280;61313;48.396;10.008;2024-02-23T06:57:46;94495.75;;;7.11;67.88
8253;BME280;61313;48.396;10.008;2024-02-23T07:00:12;94514.47;;;7.03;67.96
8253;BME280;61313;48.396;10.008;2024-02-23T07:02:38;94531.34;;;6.97;67.24
8253;BME280;61313;48.396;10.008;2024-02-23T07:05:04;94537.09;;;7.03;66.72
8253;BME280;61313;48.396;10.008;2024-02-23T07:07:30;94530.94;;;6.89;67.30
8253;BME280;61313;48.396;10.008;2024-02-23T07:09:56;94529.84;;;7.08;66.86
8253;BME280;61313;48.396;10.008;2024-02-23T07:12:21;94520.72;;;7.00;66.80
8253;BME280;61313;48.396;10.008;2024-02-23T07:14:48;94511.03;;;7.03;66.93
8253;BME280;61313;48.396;10.008;2024-02-23T07:17:17;94519.13;;;6.84;67.43
8253;BME280;61313;48.396;10.008;2024-02-23T07:19:42;94511.09;;;6.87;67.49
8253;BME280;61313;48.396;10.008;2024-02-23T07:22:08;94509.81;;;6.94;66.87
8253;BME280;61313;48.396;10.008;2024-02-23T07:24:33;94515.41;;;6.88;67.41
8253;BME280;61313;48.396;10.008;2024-02-23T07:26:58;94517.53;;;6.95;67.37
8253;BME280;61313;48.396;10.008;2024-02-23T07:29:24;94504.16;;;7.02;66.44
8253;BME280;61313;48.396;10.008;2024-02-23T07:31:49;94505.13;;;6.99;67.22
8253;BME280;61313;48.396;10.008;2024-02-23T07:34:14;94502.53;;;6.99;66.09
8253;BME280;61313;48.396;10.008;2024-02-23T07:36:40;94508.22;;;7.06;66.50
8253;BME280;61313;48.396;10.008;2024-02-23T07:39:05;94513.72;;;7.01;65.86
8253;BME280;61313;48.396;10.008;2024-02-23T07:41:31;94512.25;;;6.97;66.63
8253;BME280;61313;48.396;10.008;2024-02-23T07:43:56;94505.72;;;7.04;66.64
8253;BME280;61313;48.396;10.008;2024-02-23T07:46:22;94501.53;;;7.16;66.36
8253;BME280;61313;48.396;10.008;2024-02-23T07:48:48;94500.88;;;7.12;66.24
8253;BME280;61313;48.396;10.008;2024-02-23T07:51:13;94495.47;;;7.15;66.04
8253;BME280;61313;48.396;10.008;2024-02-23T07:53:39;94493.03;;;7.12;66.06
8253;BME280;61313;48.396;10.008;2024-02-23T07:56:07;94502.38;;;7.16;66.30
8253;BME280;61313;48.396;10.008;2024-02-23T07:58:32;94505.91;;;7.15;66.19
8253;BME280;61313;48.396;10.008;2024-02-23T08:00:58;94512.81;;;7.16;65.82
8253;BME280;61313;48.396;10.008;2024-02-23T08:03:23;94523.13;;;7.18;65.80
8253;BME280;61313;48.396;10.008;2024-02-23T08:05:49;94524.25;;;7.14;65.36
8253;BME280;61313;48.396;10.008;2024-02-23T08:08:14;94523.97;;;7.04;66.21
8253;BME280;61313;48.396;10.008;2024-02-23T08:10:39;94524.06;;;7.03;66.45
8253;BME280;61313;48.396;10.008;2024-02-23T08:13:05;94523.72;;;7.09;66.63
8253;BME280;61313;48.396;10.008;2024-02-23T08:15:30;94523.41;;;7.13;65.77
8253;BME280;61313;48.396;10.008;2024-02-23T08:17:56;94517.19;;;7.16;65.84
8253;BME280;61313;48.396;10.008;2024-02-23T08:20:21;94522.22;;;7.19;65.26
8253;BME280;61313;48.396;10.008;2024-02-23T08:22:47;94515.97;;;7.07;65.50
8253;BME280;61313;48.396;10.008;2024-02-23T08:25:12;94524.75;;;7.20;65.53
8253;BME280;61313;48.396;10.008;2024-02-23T08:27:38;94533.47;;;7.19;65.04
8253;BME280;61313;48.396;10.008;2024-02-23T08:30:03;94539.81;;;7.15;65.42
8253;BME280;61313;48.396;10.008;2024-02-23T08:32:29;94544.84;;;7.04;66.09
8253;BME280;61313;48.396;10.008;2024-02-23T08:34:54;94538.59;;;7.07;65.28
8253;BME280;61313;48.396;10.008;2024-02-23T08:37:27;94529.66;;;7.11;64.82
8253;BME280;61313;48.396;10.008;2024-02-23T08:39:52;94534.88;;;7.25;64.72
8253;BME280;61313;48.396;10.008;2024-02-23T08:42:18;94530.41;;;7.27;64.74
8253;BME280;61313;48.396;10.008;2024-02-23T08:44:43;94536.47;;;7.28;64.26
8253;BME280;61313;48.396;10.008;2024-02-23T08:47:09;94524.16;;;7.15;64.44
8253;BME280;61313;48.396;10.008;2024-02-23T08:49:34;94524.63;;;7.22;64.21
8253;BME280;61313;48.396;10.008;2024-02-23T08:52:00;94526.13;;;7.26;63.75
8253;BME280;61313;48.396;10.008;2024-02-23T08:54:25;94521.19;;;7.21;64.30
8253;BME280;61313;48.396;10.008;2024-02-23T08:56:50;94520.25;;;7.22;64.46
8253;BME280;61313;48.396;10.008;2024-02-23T08:59:16;94513.28;;;7.23;64.30
8253;BME280;61313;48.396;10.008;2024-02-23T09:01:41;94523.78;;;7.36;63.26
8253;BME280;61313;48.396;10.008;2024-02-23T09:04:07;94528.53;;;7.29;63.00
8253;BME280;61313;48.396;10.008;2024-02-23T09:06:32;94535.44;;;7.30;63.03
8253;BME280;61313;48.396;10.008;2024-02-23T09:08:58;94549.97;;;7.20;63.18
8253;BME280;61313;48.396;10.008;2024-02-23T09:11:24;94564.59;;;7.22;63.53
8253;BME280;61313;48.396;10.008;2024-02-23T09:13:49;94545.59;;;7.20;62.75
8253;BME280;61313;48.396;10.008;2024-02-23T09:16:14;94540.94;;;7.11;62.99
8253;BME280;61313;48.396;10.008;2024-02-23T09:18:40;94527.63;;;7.16;62.74
8253;BME280;61313;48.396;10.008;2024-02-23T09:21:06;94537.47;;;7.25;61.70
8253;BME280;61313;48.396;10.008;2024-02-23T09:23:31;94541.03;;;7.24;61.63
8253;BME280;61313;48.396;10.008;2024-02-23T09:25:57;94541.22;;;7.35;61.12
8253;BME280;61313;48.396;10.008;2024-02-23T09:28:23;94543.63;;;7.24;61.72
8253;BME280;61313;48.396;10.008;2024-02-23T09:30:48;94547.91;;;7.11;61.66
8253;BME280;61313;48.396;10.008;2024-02-23T09:33:14;94560.41;;;7.20;61.93
8253;BME280;61313;48.396;10.008;2024-02-23T09:35:39;94552.00;;;7.29;61.08
8253;BME280;61313;48.396;10.008;2024-02-23T09:38:04;94538.06;;;7.30;59.76
8253;BME280;61313;48.396;10.008;2024-02-23T09:40:30;94538.50;;;7.22;60.38
8253;BME280;61313;48.396;10.008;2024-02-23T09:42:56;94536.00;;;7.21;59.66
8253;BME280;61313;48.396;10.008;2024-02-23T09:45:24;94537.94;;;7.32;59.65
8253;BME280;61313;48.396;10.008;2024-02-23T09:47:51;94543.56;;;7.26;59.39
8253;BME280;61313;48.396;10.008;2024-02-23T09:50:19;94537.94;;;7.17;59.85
8253;BME280;61313;48.396;10.008;2024-02-23T09:52:46;94547.56;;;7.31;59.26
8253;BME280;61313;48.396;10.008;2024-02-23T09:55:12;94546.91;;;7.28;59.05
8253;BME280;61313;48.396;10.008;2024-02-23T09:57:38;94562.25;;;7.18;59.53
8253;BME280;61313;48.396;10.008;2024-02-23T10:00:07;94549.13;;;7.19;59.81
8253;BME280;61313;48.396;10.008;2024-02-23T10:02:34;94553.59;;;7.17;60.13
8253;BME280;61313;48.396;10.008;2024-02-23T10:05:01;94545.31;;;7.25;59.70
8253;BME280;61313;48.396;10.008;2024-02-23T10:07:27;94553.44;;;7.35;59.71
8253;BME280;61313;48.396;10.008;2024-02-23T10:09:53;94553.72;;;7.30;59.11
8253;BME280;61313;48.396;10.008;2024-02-23T10:12:20;94557.22;;;7.43;57.99
8253;BME280;61313;48.396;10.008;2024-02-23T10:14:46;94567.13;;;7.24;58.28
8253;BME280;61313;48.396;10.008;2024-02-23T10:17:11;94578.91;;;7.01;58.71
8253;BME280;61313;48.396;10.008;2024-02-23T10:19:37;94586.97;;;7.27;58.25
8253;BME280;61313;48.396;10.008;2024-02-23T10:22:03;94580.63;;;7.16;58.69
8253;BME280;61313;48.396;10.008;2024-02-23T10:24:29;94585.19;;;7.27;57.37
8253;BME280;61313;48.396;10.008;2024-02-23T10:26:55;94582.22;;;7.33;57.53
8253;BME280;61313;48.396;10.008;2024-02-23T10:29:20;94579.97;;;7.27;57.03
8253;BME280;61313;48.396;10.008;2024-02-23T10:31:46;94580.56;;;7.47;55.96
8253;BME280;61313;48.396;10.008;2024-02-23T10:34:15;94570.41;;;7.42;55.35
8253;BME280;61313;48.396;10.008;2024-02-23T10:36:42;94568.06;;;7.37;55.49
8253;BME280;61313;48.396;10.008;2024-02-23T10:39:08;94572.06;;;7.43;55.48
8253;BME280;61313;48.396;10.008;2024-02-23T10:41:35;94569.25;;;7.32;56.00
8253;BME280;61313;48.396;10.008;2024-02-23T10:44:04;94574.31;;;7.35;55.25
8253;BME280;61313;48.396;10.008;2024-02-23T10:46:31;94578.78;;;7.33;55.36
8253;BME280;61313;48.396;10.008;2024-02-23T10:48:58;94566.84;;;7.43;55.51
8253;BME280;61313;48.396;10.008;2024-02-23T10:51:25;94568.81;;;7.39;55.13
8253;BME280;61313;48.396;10.008;2024-02-23T10:53:52;94563.59;;;7.39;54.77
8253;BME280;61313;48.396;10.008;2024-02-23T10:56:18;94565.81;;;7.46;54.93
8253;BME280;61313;48.396;10.008;2024-02-23T10:58:43;94555.84;;;7.24;55.43
8253;BME280;61313;48.396;10.008;2024-02-23T11:01:09;94560.22;;;7.37;54.91
8253;BME280;61313;48.396;10.008;2024-02-23T11:03:37;94571.03;;;7.31;55.22
8253;BME280;61313;48.396;10.008;2024-02-23T11:06:06;94566.75;;;7.45;54.18
8253;BME280;61313;48.396;10.008;2024-02-23T11:08:32;94572.44;;;7.51;54.37
8253;BME280;61313;48.396;10.008;2024-02-23T11:11:07;94568.34;;;7.47;53.97
8253;BME280;61313;48.396;10.008;2024-02-23T11:13:37;94572.41;;;7.37;54.74
8253;BME280;61313;48.396;10.008;2024-02-23T11:16:06;94573.63;;;7.60;54.18
8253;BME280;61313;48.396;10.008;2024-02-23T11:18:38;94571.56;;;7.65;54.18
8253;BME280;61313;48.396;10.008;2024-02-23T11:21:05;94579.69;;;7.60;53.96
8253;BME280;61313;48.396;10.008;2024-02-23T11:23:44;94586.78;;;7.58;53.94
8253;BME280;61313;48.396;10.008;2024-02-23T11:26:11;94578.38;;;7.68;53.52
8253;BME280;61313;48.396;10.008;2024-02-23T11:28:48;94581.56;;;7.58;54.82
8253;BME280;61313;48.396;10.008;2024-02-23T11:31:15;94575.88;;;7.52;54.48
8253;BME280;61313;48.396;10.008;2024-02-23T11:33:48;94568.22;;;7.49;54.25
8253;BME280;61313;48.396;10.008;2024-02-23T11:36:28;94580.16;;;7.67;54.34
8253;BME280;61313;48.396;10.008;2024-02-23T11:38:59;94574.03;;;7.54;55.18
8253;BME280;61313;48.396;10.008;2024-02-23T11:41:26;94575.78;;;7.53;54.86
8253;BME280;61313;48.396;10.008;2024-02-23T11:43:53;94562.00;;;7.66;55.25
8253;BME280;61313;48.396;10.008;2024-02-23T11:46:19;94555.56;;;7.57;55.23
8253;BME280;61313;48.396;10.008;2024-02-23T11:48:45;94557.06;;;7.61;54.60
8253;BME280;61313;48.396;10.008;2024-02-23T11:51:15;94566.19;;;7.68;54.85
8253;BME280;61313;48.396;10.008;2024-02-23T11:53:42;94554.72;;;7.71;55.24
8253;BME280;61313;48.396;10.008;2024-02-23T11:56:07;94553.56;;;7.89;55.12
8253;BME280;61313;48.396;10.008;2024-02-23T11:58:33;94565.22;;;7.69;54.97
8253;BME280;61313;48.396;10.008;2024-02-23T12:01:02;94558.16;;;7.71;54.95
8253;BME280;61313;48.396;10.008;2024-02-23T12:03:31;94552.00;;;7.58;55.34
8253;BME280;61313;48.396;10.008;2024-02-23T12:06:00;94548.84;;;7.53;55.67
8253;BME280;61313;48.396;10.008;2024-02-23T12:08:26;94543.72;;;7.66;55.84
8253;BME280;61313;48.396;10.008;2024-02-23T12:10:55;94538.63;;;7.77;55.67
8253;BME280;61313;48.396;10.008;2024-02-23T12:13:22;94550.88;;;7.76;55.02
8253;BME280;61313;48.396;10.008;2024-02-23T12:15:48;94543.22;;;7.73;54.82
8253;BME280;61313;48.396;10.008;2024-02-23T12:18:18;94534.66;;;7.71;55.50
8253;BME280;61313;48.396;10.008;2024-02-23T12:20:47;94531.94;;;7.87;54.49
8253;BME280;61313;48.396;10.008;2024-02-23T12:23:12;94526.44;;;7.77;55.11
8253;BME280;61313;48.396;10.008;2024-02-23T12:25:38;94537.91;;;7.89;55.50
8253;BME280;61313;48.396;10.008;2024-02-23T12:28:04;94533.31;;;7.93;55.71
8253;BME280;61313;48.396;10.008;2024-02-23T12:30:30;94535.56;;;7.84;54.41
8253;BME280;61313;48.396;10.008;2024-02-23T12:33:23;94531.56;;;7.79;55.22
8253;BME280;61313;48.396;10.008;2024-02-23T12:35:48;94534.72;;;7.84;54.37
8253;BME280;61313;48.396;10.008;2024-02-23T12:38:13;94533.03;;;7.83;54.71
8253;BME280;61313;48.396;10.008;2024-02-23T12:40:39;94541.44;;;7.88;53.62
8253;BME280;61313;48.396;10.008;2024-02-23T12:43:04;94530.22;;;7.86;54.20
8253;BME280;61313;48.396;10.008;2024-02-23T12:45:29;94531.34;;;7.96;54.59
8253;BME280;61313;48.396;10.008;2024-02-23T12:47:55;94531.78;;;8.03;54.64
8253;BME280;61313;48.396;10.008;2024-02-23T12:50:20;94532.00;;;7.85;55.30
8253;BME280;61313;48.396;10.008;2024-02-23T12:52:46;94530.84;;;8.04;54.75
8253;BME280;61313;48.396;10.008;2024-02-23T12:55:14;94539.47;;;7.92;55.09
8253;BME280;61313;48.396;10.008;2024-02-23T12:57:39;94539.47;;;7.92;55.35
8253;BME280;61313;48.396;10.008;2024-02-23T13:00:05;94535.91;;;7.93;55.31
8253;BME280;61313;48.396;10.008;2024-02-23T13:02:31;94540.59;;;7.88;55.21
8253;BME280;61313;48.396;10.008;2024-02-23T13:04:56;94534.81;;;7.82;55.13